Terminal Aerodrome Forecast
Issued by NWS

Home | Current Version | Previous Version | Text Only | Print | Product List | Glossary On
Versions: 1 2 3 4 5 6 7 8 9 10 11 12 13
000
FTUS45 KABQ 211757 CCA
TAFSAF
TAF COR
KSAF 211757Z 2118/2218 15011KT P6SM OVC050
     FM212000 17010G16KT P6SM SCT045 BKN070
     FM212300 16010G18KT P6SM VCSH BKN045
      TEMPO 2123/2203 3SM -SHSN BR OVC025
     FM220500 16009KT P6SM VCSH OVC035
     FM221500 20010KT P6SM SCT025 BKN035=

USA.gov is the U.S. government's official web portal to all federal, state and local government web resources and services.